Time;durP1;ratioP1;P1;durP2;ratioP2;P2;SDS_P1;SDS_P2;PMS_P1;PMS_P2;Temp;Humidity;BMP_temperature;BMP_pressure;BME280_temperature;BME280_humidity;BME280_pressure;Samples;Min_cycle;Max_cycle;Signal;HPM_P1;HPM_P2
2023/07/01 00:00:59;;;;;;;0.10;0.10;;;16.50;99.90;;;;;;5100336;28;20552;-81
2023/07/01 00:03:24;;;;;;;0.10;0.10;;;16.60;99.90;;;;;;5111852;27;20437;-82
2023/07/01 00:05:50;;;;;;;0.10;0.10;;;16.50;99.90;;;;;;5119076;27;20440;-81
2023/07/01 00:08:16;;;;;;;0.10;0.10;;;16.50;99.90;;;;;;5105423;28;20237;-83
2023/07/01 00:10:41;;;;;;;0.10;0.10;;;16.50;99.90;;;;;;5107286;28;20554;-81
2023/07/01 00:13:07;;;;;;;0.10;0.10;;;16.50;99.90;;;;;;5110916;28;20237;-81
2023/07/01 00:15:33;;;;;;;0.10;0.10;;;16.50;99.90;;;;;;5105656;28;20249;-81
2023/07/01 00:17:59;;;;;;;0.10;0.10;;;16.40;99.90;;;;;;5091151;28;20189;-82
2023/07/01 00:20:26;;;;;;;0.10;0.10;;;16.40;99.90;;;;;;5109425;28;20441;-81
2023/07/01 00:22:52;;;;;;;0.10;0.10;;;16.40;99.90;;;;;;5108620;28;20181;-82
2023/07/01 00:25:18;;;;;;;0.10;0.10;;;16.50;99.90;;;;;;5111074;28;20976;-82
2023/07/01 00:27:43;;;;;;;0.10;0.10;;;16.50;99.90;;;;;;5110241;28;20517;-81
2023/07/01 00:30:09;;;;;;;0.10;0.10;;;16.50;99.90;;;;;;5108617;28;20203;-81
2023/07/01 00:32:35;;;;;;;0.10;0.10;;;16.40;99.90;;;;;;5110147;28;20184;-81
2023/07/01 00:35:00;;;;;;;0.10;0.10;;;16.40;99.90;;;;;;5096008;28;20435;-81
2023/07/01 00:37:27;;;;;;;0.10;0.10;;;16.40;99.90;;;;;;5090504;28;20189;-81
2023/07/01 00:39:53;;;;;;;0.10;0.10;;;16.50;99.90;;;;;;5107840;28;20191;-82
2023/07/01 00:42:18;;;;;;;0.10;0.10;;;16.50;99.90;;;;;;5108090;28;20529;-82
2023/07/01 00:44:44;;;;;;;0.10;0.10;;;16.40;99.90;;;;;;5110225;28;20185;-81
2023/07/01 00:47:10;;;;;;;0.10;0.10;;;16.40;99.90;;;;;;5109571;28;20260;-80
2023/07/01 00:49:37;;;;;;;0.10;0.10;;;16.40;99.90;;;;;;5109107;28;20207;-81
2023/07/01 00:52:04;;;;;;;0.10;0.10;;;16.40;99.90;;;;;;5089708;28;20445;-81
2023/07/01 00:54:30;;;;;;;0.10;0.10;;;16.50;99.90;;;;;;5090168;28;20419;-81
2023/07/01 00:56:55;;;;;;;0.10;0.10;;;16.40;99.90;;;;;;5090263;28;20564;-81
2023/07/01 00:59:21;;;;;;;0.10;0.10;;;16.40;99.90;;;;;;5103402;28;20180;-81
2023/07/01 01:01:49;;;;;;;0.10;0.10;;;16.40;99.90;;;;;;5107482;28;20679;-81
2023/07/01 01:04:31;;;;;;;0.10;0.10;;;16.50;99.90;;;;;;5108240;28;20173;-81
2023/07/01 01:07:11;;;;;;;0.10;0.10;;;16.50;99.90;;;;;;5108952;28;20842;-82
2023/07/01 01:09:48;;;;;;;0.10;0.10;;;16.50;99.90;;;;;;5107188;28;20598;-82
2023/07/01 01:12:14;;;;;;;0.10;0.10;;;16.60;99.90;;;;;;5108261;28;20449;-81
2023/07/01 01:14:42;;;;;;;0.10;0.10;;;16.60;99.90;;;;;;5111227;28;20449;-79
2023/07/01 01:17:12;;;;;;;0.10;0.10;;;16.60;99.90;;;;;;5106611;28;20554;-82
2023/07/01 01:19:44;;;;;;;0.10;0.10;;;16.60;99.90;;;;;;5107337;28;20950;-84
2023/07/01 01:22:40;;;;;;;0.10;0.10;;;16.60;99.90;;;;;;5109732;28;20441;-80
2023/07/01 01:25:07;;;;;;;0.10;0.10;;;16.70;99.90;;;;;;5102264;28;20438;-84
2023/07/01 01:27:40;;;;;;;0.10;0.10;;;16.60;99.90;;;;;;5098479;28;20486;-83
2023/07/01 01:30:07;;;;;;;0.10;0.10;;;16.70;99.90;;;;;;5105480;28;20446;-83
2023/07/01 01:32:34;;;;;;;0.10;0.10;;;16.60;99.90;;;;;;5109253;28;20491;-84
2023/07/01 01:35:00;;;;;;;0.10;0.10;;;16.60;99.90;;;;;;5106698;28;20525;-80
2023/07/01 01:38:04;;;;;;;0.10;0.10;;;16.60;99.90;;;;;;5105573;28;20670;-82
2023/07/01 01:40:50;;;;;;;0.10;0.10;;;16.60;99.90;;;;;;5055815;28;20448;-82
2023/07/01 01:43:20;;;;;;;0.10;0.10;;;16.60;99.90;;;;;;5101317;28;20526;-81
2023/07/01 01:45:47;;;;;;;0.10;0.10;;;16.70;99.90;;;;;;5107357;28;20441;-82
2023/07/01 01:48:13;;;;;;;0.10;0.10;;;16.60;99.90;;;;;;5108233;28;20566;-80
2023/07/01 01:50:41;;;;;;;0.10;0.10;;;16.70;99.90;;;;;;5105765;28;20446;-81
2023/07/01 01:53:08;;;;;;;0.10;0.10;;;16.60;99.90;;;;;;5105659;28;20446;-81
2023/07/01 01:55:33;;;;;;;0.10;0.10;;;16.60;99.90;;;;;;5107498;28;20441;-81
2023/07/01 01:58:00;;;;;;;0.10;0.10;;;16.60;99.90;;;;;;5109217;28;20449;-81
2023/07/01 02:00:25;;;;;;;0.10;0.10;;;16.50;99.90;;;;;;5103831;28;20232;-81
2023/07/01 02:02:51;;;;;;;0.10;0.10;;;16.60;99.90;;;;;;5108202;28;20442;-81
2023/07/01 02:05:16;;;;;;;0.10;0.10;;;16.50;99.90;;;;;;5091558;28;20196;-81
2023/07/01 02:07:42;;;;;;;0.10;0.10;;;16.50;99.90;;;;;;5106987;28;20224;-81
2023/07/01 02:10:08;;;;;;;0.10;0.10;;;16.50;99.90;;;;;;5109209;28;20188;-82
2023/07/01 02:12:33;;;;;;;0.10;0.10;;;16.50;99.90;;;;;;5107853;28;20217;-81
2023/07/01 02:14:59;;;;;;;0.10;0.10;;;16.60;99.90;;;;;;5105754;28;20196;-82
2023/07/01 02:17:24;;;;;;;0.10;0.10;;;16.60;99.90;;;;;;5107746;28;20281;-79
2023/07/01 02:19:50;;;;;;;0.10;0.10;;;16.60;99.90;;;;;;5113512;27;20180;-81
2023/07/01 02:22:15;;;;;;;0.10;0.10;;;16.50;99.90;;;;;;5105159;27;20537;-80
2023/07/01 02:24:41;;;;;;;0.10;0.10;;;16.50;99.90;;;;;;5093464;28;21116;-80
2023/07/01 02:27:07;;;;;;;0.10;0.10;;;16.60;99.90;;;;;;5111527;28;20214;-81
2023/07/01 02:29:32;;;;;;;0.10;0.10;;;16.60;99.90;;;;;;5111628;28;20183;-81
2023/07/01 02:31:58;;;;;;;0.10;0.10;;;16.60;99.90;;;;;;5089124;28;20815;-81
2023/07/01 02:34:27;;;;;;;0.10;0.10;;;16.60;99.90;;;;;;5111144;28;20195;-82
2023/07/01 02:36:56;;;;;;;0.10;0.10;;;16.60;99.90;;;;;;5110598;28;20187;-80
2023/07/01 02:39:21;;;;;;;0.10;0.10;;;16.60;99.90;;;;;;5106964;28;20949;-80
2023/07/01 02:41:47;;;;;;;0.10;0.10;;;16.60;99.90;;;;;;5111206;28;20492;-82
2023/07/01 02:44:13;;;;;;;0.10;0.10;;;16.60;99.90;;;;;;5110235;28;20688;-82
2023/07/01 02:46:38;;;;;;;0.10;0.10;;;16.50;99.90;;;;;;5111049;28;20222;-80
2023/07/01 02:49:04;;;;;;;0.10;0.10;;;16.60;99.90;;;;;;5107678;28;21637;-80
2023/07/01 02:51:30;;;;;;;0.10;0.10;;;16.60;99.90;;;;;;5100070;28;20177;-80
2023/07/01 02:53:55;;;;;;;0.10;0.10;;;16.60;99.90;;;;;;5097249;28;20183;-83
2023/07/01 02:56:21;;;;;;;0.10;0.10;;;16.60;99.90;;;;;;5111880;28;20195;-80
2023/07/01 02:58:46;;;;;;;0.10;0.10;;;16.60;99.90;;;;;;5111198;28;20188;-81
2023/07/01 03:01:13;;;;;;;0.10;0.10;;;16.60;99.90;;;;;;5088787;28;20248;-81
2023/07/01 03:03:39;;;;;;;0.10;0.10;;;16.50;99.90;;;;;;5108277;28;20191;-83
2023/07/01 03:06:04;;;;;;;0.10;0.10;;;16.50;99.90;;;;;;5100044;28;20439;-80
2023/07/01 03:08:30;;;;;;;0.10;0.10;;;16.50;99.90;;;;;;5094169;28;20188;-81
2023/07/01 03:10:55;;;;;;;0.10;0.10;;;16.50;99.90;;;;;;5110770;28;20192;-81
2023/07/01 03:13:21;;;;;;;0.10;0.10;;;16.40;99.90;;;;;;5107677;28;20191;-80
2023/07/01 03:15:46;;;;;;;0.10;0.10;;;16.30;99.90;;;;;;5109910;28;20173;-82
2023/07/01 03:18:12;;;;;;;0.10;0.10;;;16.30;99.90;;;;;;5111116;28;20181;-79
2023/07/01 03:20:37;;;;;;;0.10;0.10;;;16.30;99.90;;;;;;5103518;28;20188;-80
2023/07/01 03:23:03;;;;;;;0.10;0.10;;;16.20;99.90;;;;;;5103593;28;20529;-81
2023/07/01 03:25:29;;;;;;;0.10;0.10;;;16.10;99.90;;;;;;5111650;28;20184;-80
2023/07/01 03:27:54;;;;;;;0.10;0.10;;;16.00;99.90;;;;;;5106689;28;20751;-79
2023/07/01 03:30:27;;;;;;;0.10;0.10;;;16.00;99.90;;;;;;5113057;27;20532;-82
2023/07/01 03:32:53;;;;;;;0.10;0.10;;;15.90;99.90;;;;;;5118071;27;20191;-80
2023/07/01 03:35:18;;;;;;;0.10;0.10;;;15.80;99.90;;;;;;5111483;28;20434;-79
2023/07/01 03:37:45;;;;;;;0.10;0.10;;;15.80;99.90;;;;;;5110779;28;20196;-80
2023/07/01 03:40:11;;;;;;;0.10;0.10;;;15.80;99.90;;;;;;5108554;28;20183;-81
2023/07/01 03:42:37;;;;;;;0.10;0.10;;;15.80;99.90;;;;;;5095202;28;20452;-79
2023/07/01 03:45:07;;;;;;;0.10;0.10;;;15.80;99.90;;;;;;5108855;28;20196;-80
2023/07/01 03:47:35;;;;;;;0.10;0.10;;;15.80;99.90;;;;;;5110736;28;20489;-80
2023/07/01 03:50:00;;;;;;;0.10;0.10;;;15.80;99.90;;;;;;5110092;28;20438;-80
2023/07/01 03:52:26;;;;;;;0.10;0.10;;;15.80;99.90;;;;;;5111296;28;20473;-80
2023/07/01 03:54:51;;;;;;;0.10;0.10;;;15.70;99.90;;;;;;5109842;28;20214;-80
2023/07/01 03:57:17;;;;;;;0.10;0.10;;;15.70;99.90;;;;;;5110608;28;20664;-79
2023/07/01 03:59:42;;;;;;;0.10;0.10;;;15.70;99.90;;;;;;5101712;28;20316;-80
2023/07/01 04:02:08;;;;;;;0.10;0.10;;;15.70;99.90;;;;;;5109070;28;20486;-81
2023/07/01 04:04:34;;;;;;;0.10;0.10;;;15.60;99.90;;;;;;5103411;28;20193;-79
2023/07/01 04:06:59;;;;;;;0.10;0.10;;;15.70;99.90;;;;;;5103010;28;20219;-80
2023/07/01 04:09:25;;;;;;;0.10;0.10;;;15.60;99.90;;;;;;5105289;27;20458;-80
2023/07/01 04:11:52;;;;;;;0.10;0.10;;;15.70;99.90;;;;;;5107356;28;20190;-80
2023/07/01 04:14:17;;;;;;;0.10;0.10;;;15.70;99.90;;;;;;5110551;28;20184;-79
2023/07/01 04:16:44;;;;;;;0.10;0.10;;;15.60;99.90;;;;;;5108728;28;20510;-81
2023/07/01 04:19:10;;;;;;;0.10;0.10;;;15.60;99.90;;;;;;5107677;28;20176;-79
2023/07/01 04:21:35;;;;;;;0.10;0.10;;;15.60;99.90;;;;;;5108978;28;20438;-81
2023/07/01 04:24:04;;;;;;;0.10;0.10;;;15.60;99.90;;;;;;5101742;28;20826;-80
2023/07/01 04:26:30;;;;;;;0.10;0.10;;;15.50;99.90;;;;;;5106448;28;20212;-79
2023/07/01 04:28:55;;;;;;;0.10;0.10;;;15.50;99.90;;;;;;5106387;28;20450;-79
2023/07/01 04:31:21;;;;;;;0.10;0.10;;;15.50;99.90;;;;;;5108333;28;20499;-80
2023/07/01 04:33:47;;;;;;;0.10;0.10;;;15.50;99.90;;;;;;5108193;28;20198;-80
2023/07/01 04:36:12;;;;;;;0.10;0.10;;;15.40;99.90;;;;;;5104002;28;20450;-83
2023/07/01 04:38:38;;;;;;;0.10;0.10;;;15.40;99.90;;;;;;5089794;28;20772;-79
2023/07/01 04:41:05;;;;;;;0.10;0.10;;;15.40;99.90;;;;;;5106133;28;20188;-79
2023/07/01 04:43:31;;;;;;;0.10;0.10;;;15.30;99.90;;;;;;5109989;28;20230;-81
2023/07/01 04:45:56;;;;;;;0.10;0.10;;;15.30;99.90;;;;;;5107537;28;20442;-82
2023/07/01 04:48:22;;;;;;;0.10;0.10;;;15.20;99.90;;;;;;5110347;28;20258;-80
2023/07/01 04:50:47;;;;;;;0.10;0.10;;;15.20;99.90;;;;;;5097314;27;20199;-81
2023/07/01 04:53:13;;;;;;;0.10;0.10;;;15.20;99.90;;;;;;5108897;28;20389;-81
2023/07/01 04:55:39;;;;;;;0.10;0.10;;;15.20;99.90;;;;;;5105879;28;20214;-81
2023/07/01 04:58:04;;;;;;;0.10;0.10;;;15.10;99.90;;;;;;5109992;28;20267;-80
2023/07/01 05:00:30;;;;;;;0.10;0.10;;;15.10;99.90;;;;;;5106753;28;20220;-80
2023/07/01 05:02:55;;;;;;;0.10;0.10;;;15.10;99.90;;;;;;5108985;28;20187;-81
2023/07/01 05:05:21;;;;;;;0.10;0.10;;;15.10;99.90;;;;;;5110017;28;20294;-80
2023/07/01 05:07:46;;;;;;;0.10;0.10;;;15.10;99.90;;;;;;5102199;28;20263;-87
2023/07/01 05:10:12;;;;;;;0.10;0.10;;;15.00;99.90;;;;;;5101307;28;20215;-84
2023/07/01 05:12:37;;;;;;;0.10;0.10;;;14.90;99.90;;;;;;5107764;28;20184;-81
2023/07/01 05:15:03;;;;;;;0.10;0.10;;;14.80;99.90;;;;;;5106771;28;20262;-85
2023/07/01 05:17:29;;;;;;;0.10;0.10;;;14.80;99.90;;;;;;5104688;28;20248;-83
2023/07/01 05:19:54;;;;;;;0.10;0.10;;;14.80;99.90;;;;;;5103176;28;20184;-84
2023/07/01 05:22:20;;;;;;;0.10;0.10;;;14.80;99.90;;;;;;5105456;28;20211;-81
2023/07/01 05:24:45;;;;;;;0.10;0.10;;;14.70;99.90;;;;;;5110518;28;20180;-81
2023/07/01 05:27:11;;;;;;;0.10;0.10;;;14.80;99.90;;;;;;5107881;28;20220;-83
2023/07/01 05:29:36;;;;;;;0.10;0.10;;;14.80;99.90;;;;;;5109403;28;20192;-85
2023/07/01 05:32:03;;;;;;;0.10;0.10;;;14.70;99.90;;;;;;5104251;28;20640;-83
2023/07/01 05:34:29;;;;;;;0.10;0.10;;;14.70;99.90;;;;;;5103295;28;20183;-81
2023/07/01 05:36:55;;;;;;;0.10;0.10;;;14.70;99.90;;;;;;5108007;28;20434;-79
2023/07/01 05:39:21;;;;;;;0.10;0.10;;;14.80;99.90;;;;;;5105708;28;20441;-84
2023/07/01 05:41:47;;;;;;;0.10;0.10;;;14.80;99.90;;;;;;5105805;28;20441;-80
2023/07/01 05:44:13;;;;;;;0.10;0.10;;;14.70;99.90;;;;;;5107371;28;20227;-83
2023/07/01 05:46:40;;;;;;;0.10;0.10;;;14.70;99.90;;;;;;5106466;28;20204;-81
2023/07/01 05:49:08;;;;;;;0.10;0.10;;;14.70;99.90;;;;;;5107905;28;20473;-80
2023/07/01 05:51:34;;;;;;;0.10;0.10;;;14.80;99.90;;;;;;5107254;28;20510;-82
2023/07/01 05:54:00;;;;;;;0.10;0.10;;;14.80;99.90;;;;;;5097958;28;20591;-81
2023/07/01 05:56:26;;;;;;;0.10;0.10;;;14.90;99.90;;;;;;5108978;28;20189;-82
2023/07/01 05:58:51;;;;;;;0.10;0.10;;;14.90;99.90;;;;;;5110706;28;20180;-82
2023/07/01 06:01:17;;;;;;;0.10;0.10;;;14.80;99.90;;;;;;5110920;28;20307;-85
2023/07/01 06:03:42;;;;;;;0.10;0.10;;;14.90;99.90;;;;;;5110179;27;20196;-82
2023/07/01 06:06:08;;;;;;;0.10;0.10;;;14.80;99.90;;;;;;5110734;27;20671;-83
2023/07/01 06:08:33;;;;;;;0.10;0.10;;;14.90;99.90;;;;;;5114949;27;20215;-80
2023/07/01 06:10:59;;;;;;;0.10;0.10;;;14.80;99.90;;;;;;5109696;28;20528;-82
2023/07/01 06:13:24;;;;;;;0.10;0.10;;;14.90;99.90;;;;;;5107330;28;20188;-81
2023/07/01 06:15:50;;;;;;;0.10;0.10;;;14.80;99.90;;;;;;5106069;28;20184;-80
2023/07/01 06:18:15;;;;;;;0.10;0.10;;;14.80;99.90;;;;;;5112635;27;20190;-80
2023/07/01 06:20:42;;;;;;;0.10;0.10;;;14.80;99.90;;;;;;5105921;28;20192;-82
2023/07/01 06:23:08;;;;;;;0.10;0.10;;;14.80;99.90;;;;;;5107391;27;20191;-81
2023/07/01 06:25:33;;;;;;;0.10;0.10;;;14.90;99.90;;;;;;5109765;28;20445;-84
2023/07/01 06:27:59;;;;;;;0.10;0.10;;;14.90;99.90;;;;;;5110165;28;20257;-83
2023/07/01 06:30:24;;;;;;;0.10;0.10;;;14.90;99.90;;;;;;5106169;27;20537;-81
2023/07/01 06:32:50;;;;;;;0.10;0.10;;;14.90;99.90;;;;;;5107602;28;20208;-82
2023/07/01 06:35:15;;;;;;;0.10;0.10;;;14.90;99.90;;;;;;5109246;28;20198;-82
2023/07/01 06:37:41;;;;;;;0.10;0.10;;;15.00;99.90;;;;;;5106997;27;20193;-84
2023/07/01 06:40:07;;;;;;;0.10;0.10;;;15.00;99.90;;;;;;5107997;28;20259;-84
2023/07/01 06:42:34;;;;;;;0.10;0.10;;;15.00;99.90;;;;;;5105305;28;20191;-85
2023/07/01 06:45:01;;;;;;;0.10;0.10;;;15.00;99.90;;;;;;5112302;28;20499;-85
2023/07/01 06:47:26;;;;;;;0.10;0.10;;;14.90;99.90;;;;;;5108566;28;20513;-83
2023/07/01 06:49:51;;;;;;;0.10;0.10;;;15.00;99.90;;;;;;5107265;28;20856;-86
2023/07/01 06:52:17;;;;;;;0.10;0.10;;;15.10;99.90;;;;;;5102137;27;20192;-83
2023/07/01 06:54:42;;;;;;;0.10;0.10;;;15.10;99.90;;;;;;5108844;28;20187;-83
2023/07/01 06:57:08;;;;;;;0.10;0.10;;;15.10;99.90;;;;;;5114615;27;20189;-86
2023/07/01 06:59:33;;;;;;;0.10;0.10;;;15.10;99.90;;;;;;5110772;27;20208;-84
2023/07/01 07:01:59;;;;;;;0.10;0.10;;;15.00;99.90;;;;;;5108502;28;20246;-82
2023/07/01 07:04:24;;;;;;;0.10;0.10;;;15.00;99.90;;;;;;5111261;28;20597;-84
2023/07/01 07:06:50;;;;;;;0.10;0.10;;;15.00;99.90;;;;;;5107367;28;20295;-83
2023/07/01 07:09:15;;;;;;;0.10;0.10;;;14.90;99.90;;;;;;5107416;28;20180;-82
2023/07/01 07:11:41;;;;;;;0.10;0.10;;;14.90;99.90;;;;;;5108004;28;20211;-88
2023/07/01 07:14:07;;;;;;;0.10;0.10;;;14.80;99.90;;;;;;5108502;28;20212;-85
2023/07/01 07:16:35;;;;;;;0.10;0.10;;;14.90;99.90;;;;;;5106258;28;22030;-83
2023/07/01 07:19:01;;;;;;;0.10;0.10;;;14.90;99.90;;;;;;5110287;28;20658;-82
2023/07/01 07:21:26;;;;;;;0.10;0.10;;;14.90;99.90;;;;;;5108126;27;20464;-88
2023/07/01 07:23:52;;;;;;;0.10;0.10;;;14.80;99.90;;;;;;5109961;28;20185;-84
2023/07/01 07:26:17;;;;;;;0.10;0.10;;;14.80;99.90;;;;;;5111635;28;20196;-88
2023/07/01 07:28:44;;;;;;;0.10;0.10;;;14.90;99.90;;;;;;5107147;28;20239;-82
2023/07/01 07:31:10;;;;;;;0.10;0.10;;;14.80;99.90;;;;;;5109076;28;20706;-82
2023/07/01 07:33:36;;;;;;;0.10;0.10;;;14.80;99.90;;;;;;5110528;28;20442;-84
2023/07/01 07:36:01;;;;;;;0.10;0.10;;;14.70;99.90;;;;;;5107912;28;20234;-88
2023/07/01 07:38:27;;;;;;;0.10;0.10;;;14.70;99.90;;;;;;5099151;28;20447;-81
2023/07/01 07:40:53;;;;;;;0.10;0.10;;;14.70;99.90;;;;;;5105418;28;20195;-79
2023/07/01 07:43:19;;;;;;;0.10;0.10;;;14.60;99.90;;;;;;5109212;27;20185;-88
2023/07/01 07:45:44;;;;;;;0.10;0.10;;;14.60;99.90;;;;;;5109510;27;20271;-82
2023/07/01 07:48:10;;;;;;;0.10;0.10;;;14.60;99.90;;;;;;5105392;28;20306;-84
2023/07/01 07:50:35;;;;;;;0.10;0.10;;;14.60;99.90;;;;;;5113435;27;20219;-81
2023/07/01 07:53:03;;;;;;;0.10;0.10;;;14.60;99.90;;;;;;5113632;27;20727;-80
2023/07/01 07:55:33;;;;;;;0.10;0.10;;;14.50;99.90;;;;;;5100994;28;20181;-86
2023/07/01 07:57:59;;;;;;;0.10;0.10;;;14.50;99.90;;;;;;5111153;27;20449;-80
2023/07/01 08:00:24;;;;;;;0.10;0.10;;;14.50;99.90;;;;;;5116595;27;20474;-85
2023/07/01 08:02:50;;;;;;;0.10;0.10;;;14.40;99.90;;;;;;5108688;27;20442;-88
2023/07/01 08:05:16;;;;;;;0.10;0.10;;;14.40;99.90;;;;;;5107872;27;20178;-87
2023/07/01 08:07:43;;;;;;;0.10;0.10;;;14.40;99.90;;;;;;5113502;27;20268;-82
2023/07/01 08:10:10;;;;;;;0.10;0.10;;;14.40;99.90;;;;;;5112001;27;20842;-80
2023/07/01 08:12:35;;;;;;;0.10;0.10;;;14.50;99.90;;;;;;5111479;28;20456;-80
2023/07/01 08:15:01;;;;;;;0.10;0.10;;;14.50;99.90;;;;;;5104653;28;20180;-81
2023/07/01 08:17:26;;;;;;;0.10;0.10;;;14.50;99.90;;;;;;5109743;27;20639;-80
2023/07/01 08:19:52;;;;;;;0.10;0.10;;;14.50;99.90;;;;;;5102899;27;20195;-80
2023/07/01 08:22:18;;;;;;;0.10;0.10;;;14.60;99.90;;;;;;5111809;27;20186;-80
2023/07/01 08:24:44;;;;;;;0.10;0.10;;;14.60;99.90;;;;;;5110238;27;20216;-82
2023/07/01 08:27:09;;;;;;;0.10;0.10;;;14.60;99.90;;;;;;5091364;28;20497;-81
2023/07/01 08:29:35;;;;;;;0.10;0.10;;;14.60;99.90;;;;;;5100002;27;20725;-83
2023/07/01 08:32:00;;;;;;;0.10;0.10;;;14.60;99.90;;;;;;5111825;27;20177;-79
2023/07/01 08:34:26;;;;;;;0.00;0.00;;;14.70;99.90;;;;;;5102768;28;20271;-82
2023/07/01 08:36:52;;;;;;;0.00;0.00;;;14.70;99.90;;;;;;5092305;28;20192;-80
2023/07/01 08:39:17;;;;;;;0.10;0.10;;;14.70;99.90;;;;;;5109272;28;20215;-81
2023/07/01 08:41:51;;;;;;;0.10;0.10;;;14.80;99.90;;;;;;5108425;28;20271;-80
2023/07/01 08:44:19;;;;;;;0.10;0.10;;;14.70;99.90;;;;;;5109825;28;20651;-80
2023/07/01 08:46:46;;;;;;;0.10;0.10;;;14.80;99.90;;;;;;5085848;28;20489;-81
2023/07/01 08:49:15;;;;;;;0.10;0.10;;;14.80;99.90;;;;;;5103495;28;20446;-80
2023/07/01 08:51:43;;;;;;;0.10;0.10;;;14.90;99.90;;;;;;5087108;28;20519;-79
2023/07/01 08:54:09;;;;;;;0.10;0.10;;;14.80;99.90;;;;;;5105563;28;20438;-81
2023/07/01 08:56:36;;;;;;;0.00;0.00;;;14.80;99.90;;;;;;5090239;28;20442;-80
2023/07/01 08:59:01;;;;;;;0.10;0.10;;;14.90;99.90;;;;;;5107351;28;20430;-83
2023/07/01 09:01:29;;;;;;;0.10;0.10;;;14.90;99.90;;;;;;5084090;28;20538;-84
2023/07/01 09:03:55;;;;;;;0.10;0.10;;;14.80;99.90;;;;;;5108615;28;20244;-82
2023/07/01 09:06:21;;;;;;;0.10;0.10;;;14.80;99.90;;;;;;5100712;27;20432;-81
2023/07/01 09:08:46;;;;;;;0.10;0.10;;;14.80;99.90;;;;;;5113587;27;20196;-82
2023/07/01 09:11:14;;;;;;;0.10;0.10;;;14.70;99.90;;;;;;5107442;28;20184;-84
2023/07/01 09:13:40;;;;;;;0.10;0.10;;;14.80;99.90;;;;;;5108325;28;20217;-83
2023/07/01 09:16:06;;;;;;;0.10;0.10;;;14.80;99.90;;;;;;5106108;28;20469;-83
2023/07/01 09:18:32;;;;;;;0.10;0.10;;;14.70;99.90;;;;;;5089933;28;20225;-81
2023/07/01 09:20:58;;;;;;;0.10;0.10;;;14.80;99.90;;;;;;5103789;28;20446;-81
2023/07/01 09:23:35;;;;;;;0.10;0.10;;;14.80;99.90;;;;;;5105138;28;20180;-87
2023/07/01 09:26:14;;;;;;;0.10;0.10;;;14.70;99.90;;;;;;5087507;28;20563;-88
2023/07/01 09:28:53;;;;;;;0.10;0.10;;;14.80;99.90;;;;;;5105559;28;20470;-88
2023/07/01 09:31:19;;;;;;;0.10;0.10;;;14.80;99.90;;;;;;5104384;28;20448;-87
2023/07/01 09:34:08;;;;;;;0.10;0.10;;;14.80;99.90;;;;;;5109524;28;20445;-85
2023/07/01 09:36:34;;;;;;;0.10;0.10;;;14.80;99.90;;;;;;5111891;28;20180;-84
2023/07/01 09:39:01;;;;;;;0.10;0.10;;;14.80;99.90;;;;;;5113369;28;20498;-80
2023/07/01 09:41:27;;;;;;;0.10;0.10;;;14.80;99.90;;;;;;5108919;28;20180;-85
2023/07/01 09:43:57;;;;;;;0.10;0.10;;;14.80;99.90;;;;;;5095977;28;20432;-85
2023/07/01 09:46:24;;;;;;;0.10;0.10;;;14.80;99.90;;;;;;5093580;28;20718;-80
2023/07/01 09:48:56;;;;;;;0.10;0.10;;;14.80;99.90;;;;;;5109569;28;20437;-81
2023/07/01 09:51:24;;;;;;;0.10;0.10;;;14.80;99.90;;;;;;5111812;28;20446;-82
2023/07/01 09:53:50;;;;;;;0.10;0.10;;;14.90;99.90;;;;;;5107882;27;20447;-80
2023/07/01 09:56:18;;;;;;;0.10;0.10;;;14.90;99.90;;;;;;5109967;28;20520;-82
2023/07/01 09:58:47;;;;;;;0.10;0.10;;;14.90;99.90;;;;;;5110490;28;20459;-83
2023/07/01 10:01:16;;;;;;;0.10;0.10;;;14.90;99.90;;;;;;5108224;27;20509;-83
2023/07/01 10:03:42;;;;;;;0.10;0.10;;;15.00;99.90;;;;;;5110120;28;20434;-83
2023/07/01 10:06:08;;;;;;;0.10;0.10;;;15.00;99.90;;;;;;5110420;28;20429;-85
2023/07/01 10:08:34;;;;;;;0.10;0.10;;;15.00;99.90;;;;;;5108934;28;21122;-83
2023/07/01 10:11:18;;;;;;;0.10;0.10;;;15.00;99.90;;;;;;5092851;28;20441;-86
2023/07/01 10:13:53;;;;;;;0.10;0.10;;;15.00;99.90;;;;;;5106307;28;20288;-87
2023/07/01 10:16:19;;;;;;;0.10;0.10;;;15.00;99.90;;;;;;5107450;28;20441;-84
2023/07/01 10:18:45;;;;;;;0.10;0.10;;;15.00;99.90;;;;;;5111072;28;20931;-82
2023/07/01 10:21:23;;;;;;;0.10;0.10;;;15.00;99.90;;;;;;5108731;28;20514;-87
2023/07/01 10:23:49;;;;;;;0.10;0.10;;;15.00;99.90;;;;;;5104884;28;20820;-83
2023/07/01 10:26:39;;;;;;;0.10;0.10;;;15.00;99.90;;;;;;5091035;28;21260;-82
2023/07/01 10:29:30;;;;;;;0.10;0.10;;;15.10;99.90;;;;;;5112707;28;20430;-83
2023/07/01 10:32:11;;;;;;;0.10;0.10;;;15.10;99.90;;;;;;5108380;27;20439;-92
2023/07/01 10:34:55;;;;;;;0.10;0.10;;;15.20;99.90;;;;;;5112251;28;20452;-83
2023/07/01 10:37:25;;;;;;;0.10;0.10;;;15.10;99.90;;;;;;5105631;28;20581;-86
2023/07/01 10:39:52;;;;;;;0.10;0.10;;;15.20;99.90;;;;;;5089618;27;20583;-85
2023/07/01 10:42:31;;;;;;;0.10;0.10;;;15.30;99.90;;;;;;5112054;28;20427;-85
2023/07/01 10:45:11;;;;;;;0.10;0.10;;;15.30;99.90;;;;;;5111562;28;20430;-86
2023/07/01 10:47:44;;;;;;;0.10;0.10;;;15.30;99.90;;;;;;5098157;28;21226;-84
2023/07/01 10:50:14;;;;;;;0.10;0.10;;;15.30;99.90;;;;;;5106470;27;20426;-84
2023/07/01 10:53:01;;;;;;;0.10;0.10;;;15.20;99.90;;;;;;5092080;28;20445;-82
2023/07/01 10:55:49;;;;;;;0.10;0.10;;;15.20;99.90;;;;;;5095397;27;20496;-85
2023/07/01 10:58:24;;;;;;;0.10;0.10;;;15.20;99.90;;;;;;5109660;28;20430;-89
2023/07/01 11:00:53;;;;;;;0.10;0.10;;;15.20;99.90;;;;;;5109420;28;20556;-84
2023/07/01 11:03:34;;;;;;;0.10;0.10;;;15.20;99.90;;;;;;5107369;28;20721;-85
2023/07/01 11:06:00;;;;;;;0.10;0.10;;;15.20;99.90;;;;;;5110772;27;20449;-86
2023/07/01 11:08:27;;;;;;;0.10;0.10;;;15.20;99.90;;;;;;5113120;27;21020;-91
2023/07/01 11:10:53;;;;;;;0.10;0.10;;;15.30;99.90;;;;;;5089994;28;20484;-90
2023/07/01 11:13:19;;;;;;;0.10;0.10;;;15.30;99.90;;;;;;5094585;28;20530;-89
2023/07/01 11:16:05;;;;;;;0.10;0.10;;;15.30;99.90;;;;;;5112399;27;20184;-90
2023/07/01 11:18:41;;;;;;;0.10;0.10;;;15.40;99.90;;;;;;5111833;28;20426;-85
2023/07/01 11:21:11;;;;;;;0.10;0.10;;;15.30;99.90;;;;;;5111690;28;20481;-82
2023/07/01 11:23:42;;;;;;;0.10;0.10;;;15.40;99.90;;;;;;5113990;27;20575;-83
2023/07/01 11:26:09;;;;;;;0.10;0.10;;;15.50;99.90;;;;;;5109258;28;20426;-84
2023/07/01 11:28:36;;;;;;;0.10;0.10;;;15.50;99.90;;;;;;5111552;28;20470;-84
2023/07/01 11:31:16;;;;;;;0.10;0.10;;;15.50;99.90;;;;;;5090678;28;20438;-87
2023/07/01 11:33:46;;;;;;;0.10;0.10;;;15.60;99.90;;;;;;5109382;28;20441;-84
2023/07/01 11:36:16;;;;;;;0.10;0.10;;;15.60;99.90;;;;;;5108397;28;20458;-83
2023/07/01 11:38:47;;;;;;;0.10;0.10;;;15.60;99.90;;;;;;5104555;28;20430;-83
2023/07/01 11:41:19;;;;;;;0.10;0.10;;;15.70;99.90;;;;;;5113299;27;20433;-84
2023/07/01 11:43:45;;;;;;;0.10;0.10;;;15.70;99.90;;;;;;5106478;28;20494;-86
2023/07/01 11:46:13;;;;;;;0.10;0.10;;;15.60;99.90;;;;;;5090943;28;20447;-83
2023/07/01 11:48:40;;;;;;;0.10;0.10;;;15.70;99.90;;;;;;5110169;28;20477;-87
2023/07/01 11:51:06;;;;;;;0.10;0.10;;;15.80;99.90;;;;;;5105336;28;20435;-89
2023/07/01 11:53:31;;;;;;;0.10;0.10;;;15.80;99.90;;;;;;5101449;28;20437;-85
2023/07/01 11:55:58;;;;;;;0.10;0.10;;;15.80;99.90;;;;;;5110100;28;20185;-85
2023/07/01 11:58:39;;;;;;;0.10;0.10;;;15.80;99.90;;;;;;5110528;28;20640;-83
2023/07/01 12:01:25;;;;;;;0.10;0.10;;;15.80;99.90;;;;;;5108189;28;20500;-87
2023/07/01 12:03:54;;;;;;;0.10;0.10;;;15.80;99.90;;;;;;5109367;27;20966;-89
2023/07/01 12:06:22;;;;;;;0.10;0.10;;;15.90;99.90;;;;;;5109332;28;20498;-85
2023/07/01 12:08:56;;;;;;;0.10;0.10;;;15.90;99.90;;;;;;5111835;27;20487;-88
2023/07/01 12:11:22;;;;;;;0.10;0.10;;;15.90;99.90;;;;;;5111275;28;20438;-86
2023/07/01 12:13:49;;;;;;;0.10;0.10;;;16.00;99.90;;;;;;5107329;28;20450;-84
2023/07/01 12:16:15;;;;;;;0.10;0.10;;;15.90;99.90;;;;;;5105753;28;20457;-83
2023/07/01 12:18:41;;;;;;;0.10;0.10;;;16.00;99.90;;;;;;5106498;28;21028;-85
2023/07/01 12:21:07;;;;;;;0.10;0.10;;;16.00;99.90;;;;;;5105061;28;20430;-83
2023/07/01 12:23:40;;;;;;;0.10;0.10;;;16.00;99.90;;;;;;5107313;27;21387;-84
2023/07/01 12:26:05;;;;;;;0.10;0.10;;;16.00;99.90;;;;;;5089529;28;20229;-83
2023/07/01 12:28:31;;;;;;;0.10;0.10;;;16.10;99.90;;;;;;5102251;28;20507;-85
2023/07/01 12:30:57;;;;;;;0.10;0.10;;;16.20;99.90;;;;;;5107987;28;20184;-83
2023/07/01 12:33:22;;;;;;;0.10;0.10;;;16.30;99.90;;;;;;5101291;28;20184;-86
2023/07/01 12:35:48;;;;;;;0.10;0.10;;;16.30;99.90;;;;;;5099340;28;20933;-88
2023/07/01 12:38:14;;;;;;;0.10;0.10;;;16.30;99.90;;;;;;5106301;28;20181;-87
2023/07/01 12:40:40;;;;;;;0.10;0.10;;;16.30;99.90;;;;;;5109229;28;20444;-83
2023/07/01 12:43:07;;;;;;;0.10;0.10;;;16.30;99.90;;;;;;5091152;28;20445;-85
2023/07/01 12:45:33;;;;;;;0.10;0.10;;;16.30;99.90;;;;;;5099373;28;20267;-84
2023/07/01 12:47:59;;;;;;;0.10;0.10;;;16.30;99.90;;;;;;5108841;27;20504;-87
2023/07/01 12:50:24;;;;;;;0.10;0.10;;;16.40;99.90;;;;;;5106264;27;20435;-88